| time (UTC) | temp C | wind direction | speed KPH | gust KPH | rain 1hr cm | rain 24hr cm | rain mn cm | humidity % | barometer mb |
| 20260506183051 | 15 | 198 | 3.2 | 14.5 | 0.00 | 0.84 | 0.84 | 95 | 1008.4 |
| 20260506182549 | 15 | 159 | 3.2 | 16.1 | 0.00 | 0.84 | 0.84 | 96 | 1008.7 |
| 20260506182046 | 15 | 217 | 4.8 | 11.3 | 0.00 | 0.84 | 0.84 | 95 | 1008.5 |
| 20260506181544 | 15 | 192 | 4.8 | 12.9 | 0.00 | 0.84 | 0.84 | 96 | 1008.5 |
| 20260506181040 | 15 | 193 | 3.2 | 9.7 | 0.05 | 0.84 | 0.84 | 95 | 1008.7 |
| 20260506180537 | 15 | 186 | 3.2 | 9.7 | 0.05 | 0.84 | 0.84 | 95 | 1008.7 |
| 20260506180034 | 16 | 177 | 6.4 | 11.3 | 0.00 | 0.84 | 0.84 | 95 | 1008.7 |
| 20260506175530 | 16 | 245 | 3.2 | 6.4 | 0.00 | 0.84 | 0.84 | 95 | 1008.5 |
| 20260506175027 | 16 | 178 | 6.4 | 8.0 | 0.00 | 0.84 | 0.84 | 95 | 1008.6 |
| 20260506174526 | 16 | 208 | 8.0 | 11.3 | 0.00 | 0.84 | 0.84 | 94 | 1008.7 |
| 20260506174021 | 16 | 174 | 9.7 | 14.5 | 0.05 | 0.84 | 0.84 | 94 | 1008.8 |
| 20260506173519 | 16 | 252 | 3.2 | 8.0 | 0.00 | 0.81 | 0.81 | 94 | 1008.6 |
| 20260506173016 | 16 | 219 | 8.0 | 14.5 | 0.13 | 0.81 | 0.81 | 94 | 1008.6 |
| 20260506172514 | 16 | 206 | 4.8 | 17.7 | 0.05 | 0.81 | 0.81 | 94 | 1008.7 |
| 20260506172009 | 16 | 232 | 8.0 | 9.7 | 0.00 | 0.81 | 0.81 | 94 | 1008.9 |
| 20260506171507 | 16 | 185 | 6.4 | 6.4 | 0.00 | 0.81 | 0.81 | 94 | 1008.8 |
| 20260506171004 | 16 | 207 | 8.0 | 11.3 | 0.05 | 0.81 | 0.81 | 93 | 1008.9 |
| 20260506170501 | 16 | 151 | 1.6 | 14.5 | 0.13 | 0.81 | 0.81 | 93 | 1008.9 |
| 20260506165959 | 16 | 176 | 4.8 | 11.3 | 0.05 | 0.79 | 0.79 | 92 | 1009.0 |
| 20260506165458 | 16 | 238 | 6.4 | 19.3 | 0.05 | 0.79 | 0.79 | 91 | 1008.9 |
| 20260506164953 | 16 | 200 | 12.9 | 24.1 | 0.00 | 0.76 | 0.76 | 91 | 1009.0 |
| 20260506164450 | 16 | 242 | 9.7 | 11.3 | 0.00 | 0.76 | 0.76 | 91 | 1008.8 |
| 20260506163948 | 16 | 181 | 8.0 | 14.5 | 0.00 | 0.76 | 0.76 | 91 | 1008.9 |
| 20260506163443 | 16 | 207 | 17.7 | 20.9 | 0.05 | 0.76 | 0.76 | 92 | 1008.9 |
| 20260506162938 | 16 | 154 | 3.2 | 14.5 | 0.05 | 0.76 | 0.76 | 92 | 1008.9 |
| 20260506162436 | 16 | 172 | 3.2 | 17.7 | 0.05 | 0.76 | 0.76 | 92 | 1008.9 |
| 20260506161933 | 16 | 172 | 0.0 | 8.0 | 0.05 | 0.74 | 0.74 | 92 | 1008.8 |
| 20260506161431 | 16 | 166 | 3.2 | 6.4 | 0.05 | 0.74 | 0.74 | 92 | 1008.8 |
| 20260506160923 | 16 | 234 | 12.9 | 14.5 | 0.05 | 0.74 | 0.74 | 93 | 1008.8 |
| 20260506160420 | 16 | 181 | 11.3 | 11.3 | 0.18 | 0.74 | 0.74 | 93 | 1008.7 |
| 20260506155917 | 16 | 144 | 3.2 | 6.4 | 0.23 | 0.74 | 0.74 | 93 | 1008.9 |
| 20260506155414 | 16 | 227 | 9.7 | 9.7 | 0.30 | 0.71 | 0.71 | 92 | 1009.0 |
| 20260506153536 | 16 | 182 | 9.7 | 19.3 | 0.79 | 0.56 | 0.56 | 90 | 1010.0 |
| 20260506153033 | 16 | 199 | 17.7 | 22.5 | 0.79 | 0.48 | 0.48 | 90 | 1009.9 |
| 20260506152530 | 16 | 158 | 1.6 | 17.7 | 0.30 | 0.41 | 0.41 | 89 | 1010.2 |
| 20260506152029 | 16 | 197 | 9.7 | 9.7 | 0.05 | 0.36 | 0.36 | 89 | 1010.0 |
| 20260506151526 | 16 | 202 | 16.1 | 16.1 | 0.05 | 0.36 | 0.36 | 88 | 1010.2 |
| 20260506151023 | 17 | 139 | 9.7 | 24.1 | 0.05 | 0.36 | 0.36 | 88 | 1010.1 |
| 20260506150520 | 17 | 201 | 6.4 | 11.3 | 0.05 | 0.33 | 0.33 | 88 | 1009.7 |
| 20260506150017 | 17 | 195 | 9.7 | 19.3 | 0.05 | 0.33 | 0.33 | 88 | 1009.9 |
| 20260506145514 | 17 | 166 | 9.7 | 17.7 | 0.13 | 0.33 | 0.33 | 88 | 1009.6 |
| 20260506145011 | 17 | 215 | 6.4 | 9.7 | 0.13 | 0.33 | 0.33 | 88 | 1009.7 |
| 20260506144508 | 17 | 208 | 0.0 | 4.8 | 0.30 | 0.30 | 0.30 | 89 | 1009.8 |
| 20260506144005 | 17 | 192 | 3.2 | 6.4 | 0.36 | 0.28 | 0.28 | 88 | 1009.5 |
| 20260506143503 | 17 | 180 | 3.2 | 6.4 | 0.30 | 0.25 | 0.25 | 88 | 1009.7 |
| 20260506143001 | 17 | 150 | 0.0 | 9.7 | 0.36 | 0.23 | 0.23 | 87 | 1009.5 |
| 20260506142458 | 17 | 182 | 6.4 | 9.7 | 0.53 | 0.20 | 0.20 | 86 | 1009.9 |
| 20260506141956 | 17 | 198 | 6.4 | 11.3 | 0.43 | 0.18 | 0.18 | 84 | 1010.0 |
| 20260506141454 | 17 | 187 | 6.4 | 11.3 | 0.18 | 0.10 | 0.10 | 83 | 1010.0 |
| 20260506140952 | 17 | 201 | 4.8 | 11.3 | 0.13 | 0.10 | 0.10 | 83 | 1009.8 |
| 20260506140449 | 17 | 170 | 4.8 | 14.5 | 0.05 | 0.08 | 0.08 | 81 | 1009.8 |
| 20260506135945 | 17 | 199 | 9.7 | 16.1 | 0.05 | 0.08 | 0.08 | 81 | 1009.9 |
| 20260506135443 | 17 | 207 | 4.8 | 9.7 | 0.05 | 0.08 | 0.08 | 82 | 1009.8 |
| 20260506134938 | 17 | 203 | 8.0 | 11.3 | 0.05 | 0.08 | 0.08 | 82 | 1009.6 |
| 20260506134435 | 17 | 223 | 11.3 | 12.9 | 0.05 | 0.05 | 0.05 | 82 | 1009.9 |
| 20260506133932 | 17 | 187 | 8.0 | 14.5 | 0.13 | 0.05 | 0.05 | 82 | 1009.9 |
| 20260506133429 | 17 | 189 | 8.0 | 11.3 | 0.13 | 0.05 | 0.05 | 81 | 1009.9 |
| 20260506132926 | 17 | 218 | 8.0 | 19.3 | 0.05 | 0.05 | 0.05 | 79 | 1010.0 |
| 20260506132423 | 17 | 170 | 4.8 | 11.3 | 0.05 | 0.03 | 0.03 | 80 | 1010.0 |
| 20260506131920 | 17 | 208 | 6.4 | 11.3 | 0.05 | 0.03 | 0.03 | 79 | 1010.0 |
| 20260506131416 | 17 | 213 | 9.7 | 16.1 | 0.00 | 0.03 | 0.03 | 78 | 1010.1 |
| 20260506130914 | 17 | 181 | 4.8 | 12.9 | 0.05 | 0.03 | 0.03 | 78 | 1010.0 |
| 20260506130410 | 18 | 232 | 6.4 | 19.3 | 0.05 | 0.03 | 0.03 | 78 | 1010.2 |
| 20260506125909 | 18 | 188 | 12.9 | 16.1 | 0.05 | 0.00 | 0.00 | 78 | 1010.1 |
| 20260506125406 | 18 | 184 | 11.3 | 16.1 | 0.05 | 0.00 | 0.00 | 77 | 1010.2 |
| 20260506124904 | 18 | 206 | 6.4 | 17.7 | 0.00 | 0.00 | 0.00 | 74 | 1010.1 |
| 20260506124401 | 18 | 187 | 6.4 | 19.3 | 0.00 | 0.00 | 0.00 | 73 | 1010.0 |
| 20260506123859 | 18 | 180 | 6.4 | 17.7 | 0.00 | 0.00 | 0.00 | 71 | 1010.0 |
| 20260506123357 | 18 | 213 | 16.1 | 20.9 | 0.00 | 0.00 | 0.00 | 71 | 1009.9 |
| 20260506122854 | 18 | 224 | 16.1 | 20.9 | 0.00 | 0.00 | 0.00 | 70 | 1009.9 |
| 20260506122350 | 19 | 228 | 8.0 | 24.1 | 0.00 | 0.00 | 0.00 | 69 | 1009.6 |
| 20260506121849 | 19 | 191 | 8.0 | 14.5 | 0.00 | 0.00 | 0.00 | 69 | 1009.8 |
| 20260506121346 | 19 | 179 | 1.6 | 14.5 | 0.00 | 0.00 | 0.00 | 69 | 1009.8 |
| 20260506120843 | 19 | 235 | 4.8 | 11.3 | 0.00 | 0.00 | 0.00 | 69 | 1009.6 |
| 20260506120340 | 19 | 209 | 8.0 | 24.1 | 0.00 | 0.00 | 0.00 | 69 | 1009.7 |
| 20260506115837 | 19 | 186 | 4.8 | 14.5 | 0.00 | 0.00 | 0.00 | 69 | 1009.6 |
| 20260506115336 | 18 | 242 | 6.4 | 8.0 | 0.00 | 0.00 | 0.00 | 69 | 1009.7 |
| 20260506114834 | 18 | 192 | 8.0 | 8.0 | 0.00 | 0.00 | 0.00 | 69 | 1009.7 |
| 20260506114331 | 18 | 145 | 4.8 | 6.4 | 0.00 | 0.00 | 0.00 | 69 | 1009.6 |
| 20260506113830 | 18 | 191 | 8.0 | 14.5 | 0.00 | 0.00 | 0.00 | 69 | 1009.7 |
| 20260506113327 | 18 | 195 | 8.0 | 19.3 | 0.00 | 0.00 | 0.00 | 69 | 1009.8 |
| 20260506112823 | 18 | 185 | 4.8 | 17.7 | 0.00 | 0.00 | 0.00 | 69 | 1009.8 |
| 20260506112320 | 18 | 209 | 9.7 | 17.7 | 0.00 | 0.00 | 0.00 | 69 | 1009.6 |
| 20260506111818 | 18 | 206 | 11.3 | 27.4 | 0.00 | 0.00 | 0.00 | 69 | 1009.7 |
| 20260506111316 | 18 | 217 | 20.9 | 20.9 | 0.00 | 0.00 | 0.00 | 69 | 1009.7 |
| 20260506110813 | 18 | 217 | 9.7 | 17.7 | 0.00 | 0.00 | 0.00 | 69 | 1009.7 |
| 20260506110310 | 18 | 148 | 6.4 | 17.7 | 0.00 | 0.00 | 0.00 | 69 | 1009.7 |
| 20260506105806 | 18 | 190 | 16.1 | 16.1 | 0.00 | 0.00 | 0.00 | 70 | 1009.6 |
| 20260506105305 | 18 | 159 | 3.2 | 9.7 | 0.00 | 0.00 | 0.00 | 69 | 1009.4 |
| 20260506104801 | 18 | 196 | 8.0 | 19.3 | 0.00 | 0.00 | 0.00 | 69 | 1009.3 |
| 20260506104258 | 18 | 89 | 1.6 | 14.5 | 0.00 | 0.00 | 0.00 | 69 | 1009.0 |
| 20260506103756 | 18 | 178 | 8.0 | 11.3 | 0.00 | 0.00 | 0.00 | 70 | 1009.0 |
| 20260506103253 | 18 | 180 | 3.2 | 14.5 | 0.00 | 0.00 | 0.00 | 70 | 1009.0 |
| 20260506102750 | 18 | 202 | 1.6 | 9.7 | 0.00 | 0.00 | 0.00 | 70 | 1008.9 |
| 20260506102248 | 18 | 222 | 6.4 | 9.7 | 0.00 | 0.00 | 0.00 | 70 | 1009.2 |
| 20260506101745 | 18 | 113 | 1.6 | 9.7 | 0.00 | 0.00 | 0.00 | 70 | 1009.0 |
| 20260506101241 | 18 | 201 | 6.4 | 16.1 | 0.00 | 0.00 | 0.00 | 69 | 1009.2 |
| 20260506100740 | 18 | 190 | 4.8 | 11.3 | 0.00 | 0.00 | 0.00 | 69 | 1009.0 |
| 20260506100237 | 18 | 193 | 6.4 | 12.9 | 0.00 | 0.00 | 0.00 | 69 | 1009.0 |
| 20260506095736 | 18 | 197 | 8.0 | 9.7 | 0.00 | 0.00 | 0.00 | 69 | 1009.3 |
| 20260506095232 | 18 | 181 | 8.0 | 11.3 | 0.00 | 0.00 | 0.00 | 69 | 1009.4 |
| 20260506094729 | 18 | 203 | 8.0 | 14.5 | 0.00 | 0.00 | 0.00 | 68 | 1009.3 |
| 20260506094227 | 18 | 190 | 6.4 | 6.4 | 0.00 | 0.00 | 0.00 | 68 | 1009.2 |
| 20260506093726 | 18 | 168 | 6.4 | 16.1 | 0.00 | 0.00 | 0.00 | 68 | 1008.9 |
| 20260506093222 | 18 | 237 | 6.4 | 11.3 | 0.00 | 0.00 | 0.00 | 67 | 1009.2 |
| 20260506092720 | 18 | 195 | 6.4 | 16.1 | 0.00 | 0.00 | 0.00 | 67 | 1009.0 |
| 20260506092218 | 18 | 195 | 8.0 | 11.3 | 0.00 | 0.00 | 0.00 | 67 | 1009.2 |
| 20260506091715 | 18 | 227 | 4.8 | 14.5 | 0.00 | 0.00 | 0.00 | 66 | 1009.0 |
| 20260506091212 | 18 | 189 | 11.3 | 17.7 | 0.00 | 0.00 | 0.00 | 66 | 1009.4 |
| 20260506090710 | 19 | 209 | 3.2 | 8.0 | 0.00 | 0.00 | 0.00 | 65 | 1009.0 |
| 20260506090207 | 19 | 204 | 6.4 | 6.4 | 0.00 | 0.00 | 0.00 | 65 | 1009.2 |
| 20260506085704 | 19 | 147 | 3.2 | 12.9 | 0.00 | 0.00 | 0.00 | 64 | 1009.3 |
| 20260506085200 | 19 | 202 | 4.8 | 8.0 | 0.00 | 0.00 | 0.00 | 64 | 1009.2 |
| 20260506084656 | 19 | 181 | 3.2 | 9.7 | 0.00 | 0.00 | 0.00 | 64 | 1009.5 |
| 20260506084153 | 19 | 210 | 4.8 | 9.7 | 0.00 | 0.00 | 0.00 | 63 | 1009.4 |
| 20260506083650 | 19 | 144 | 0.0 | 17.7 | 0.00 | 0.00 | 0.00 | 63 | 1009.6 |
| 20260506083148 | 19 | 190 | 3.2 | 11.3 | 0.00 | 0.00 | 0.00 | 63 | 1009.5 |
| 20260506082645 | 19 | 199 | 1.6 | 3.2 | 0.00 | 0.00 | 0.00 | 63 | 1009.3 |
| 20260506082144 | 19 | 179 | 6.4 | 11.3 | 0.00 | 0.00 | 0.00 | 62 | 1009.3 |
| 20260506081643 | 19 | 210 | 4.8 | 12.9 | 0.00 | 0.00 | 0.00 | 62 | 1009.5 |
| 20260506081140 | 19 | 230 | 3.2 | 11.3 | 0.00 | 0.00 | 0.00 | 61 | 1009.5 |
| 20260506080638 | 19 | 223 | 3.2 | 9.7 | 0.00 | 0.00 | 0.00 | 61 | 1009.4 |
| 20260506080134 | 19 | 215 | 4.8 | 16.1 | 0.00 | 0.00 | 0.00 | 61 | 1009.4 |
| 20260506073118 | 20 | 255 | 3.2 | 9.7 | 0.00 | 0.00 | 0.00 | 59 | 1009.5 |
| 20260506072615 | 20 | 184 | 11.3 | 11.3 | 0.00 | 0.00 | 0.00 | 58 | 1009.5 |
| 20260506072113 | 20 | 213 | 3.2 | 11.3 | 0.00 | 0.00 | 0.00 | 58 | 1009.6 |
| 20260506071610 | 20 | 245 | 8.0 | 11.3 | 0.00 | 0.00 | 0.00 | 58 | 1009.3 |
| 20260506071108 | 20 | 194 | 8.0 | 14.5 | 0.00 | 0.00 | 0.00 | 57 | 1009.4 |
| 20260506070605 | 20 | 224 | 8.0 | 14.5 | 0.00 | 0.00 | 0.00 | 57 | 1009.6 |
| 20260506062039 | 20 | 219 | 0.0 | 9.7 | 0.00 | 0.00 | 0.00 | 56 | 1009.8 |
| 20260506061534 | 20 | 207 | 9.7 | 14.5 | 0.00 | 0.00 | 0.00 | 55 | 1009.7 |
| 20260506061032 | 20 | 176 | 3.2 | 11.3 | 0.00 | 0.00 | 0.00 | 55 | 1010.0 |
| 20260506060531 | 20 | 195 | 8.0 | 16.1 | 0.00 | 0.00 | 0.00 | 55 | 1010.1 |
| 20260506050959 | 20 | 193 | 3.2 | 14.5 | 0.00 | 0.00 | 0.00 | 53 | 1010.3 |
| 20260506050457 | 20 | 186 | 4.8 | 12.9 | 0.00 | 0.00 | 0.00 | 53 | 1010.2 |
| 20260506044948 | 20 | 177 | 4.8 | 9.7 | 0.00 | 0.00 | 0.00 | 52 | 1010.5 |
| 20260506044446 | 20 | 56 | 0.0 | 14.5 | 0.00 | 0.00 | 0.00 | 52 | 1010.4 |
| 20260506043942 | 20 | 212 | 4.8 | 11.3 | 0.00 | 0.00 | 0.00 | 52 | 1010.6 |
| 20260506043440 | 20 | 180 | 4.8 | 9.7 | 0.00 | 0.00 | 0.00 | 52 | 1010.4 |
| 20260506042937 | 20 | 76 | 1.6 | 9.7 | 0.00 | 0.00 | 0.00 | 51 | 1010.4 |
| 20260506042437 | 20 | 250 | 4.8 | 8.0 | 0.00 | 0.00 | 0.00 | 51 | 1010.5 |
| 20260506041934 | 21 | 229 | 6.4 | 8.0 | 0.00 | 0.00 | 0.00 | 51 | 1010.6 |
| 20260506041432 | 21 | 222 | 8.0 | 8.0 | 0.00 | 0.00 | 0.00 | 50 | 1010.5 |
| 20260506040929 | 21 | 245 | 4.8 | 11.3 | 0.00 | 0.00 | 0.00 | 50 | 1010.3 |
| 20260506040426 | 21 | 168 | 4.8 | 12.9 | 0.00 | 0.00 | 0.00 | 50 | 1010.4 |
| 20260506035922 | 21 | 196 | 4.8 | 16.1 | 0.00 | 0.20 | 0.20 | 49 | 1010.4 |
| 20260506035420 | 21 | 60 | 1.6 | 8.0 | 0.00 | 0.20 | 0.20 | 50 | 1010.3 |
| 20260506034917 | 21 | 101 | 0.0 | 9.7 | 0.00 | 0.20 | 0.20 | 49 | 1010.4 |
| 20260506034414 | 21 | 28 | 1.6 | 8.0 | 0.00 | 0.20 | 0.20 | 48 | 1010.4 |
| 20260506033911 | 21 | 235 | 11.3 | 14.5 | 0.00 | 0.20 | 0.20 | 48 | 1010.3 |
| 20260506033408 | 21 | 236 | 9.7 | 24.1 | 0.00 | 0.20 | 0.20 | 47 | 1010.5 |
| 20260506032904 | 21 | 180 | 6.4 | 9.7 | 0.00 | 0.20 | 0.20 | 47 | 1010.1 |
| 20260506032402 | 21 | 175 | 6.4 | 16.1 | 0.00 | 0.20 | 0.20 | 47 | 1010.3 |
| 20260506031858 | 21 | 204 | 12.9 | 16.1 | 0.00 | 0.20 | 0.20 | 47 | 1010.2 |
| 20260506031356 | 22 | 124 | 1.6 | 8.0 | 0.00 | 0.20 | 0.20 | 46 | 1010.3 |
| 20260506030853 | 22 | 268 | 6.4 | 9.7 | 0.00 | 0.20 | 0.20 | 46 | 1010.3 |
| 20260506030351 | 22 | 191 | 4.8 | 14.5 | 0.00 | 0.20 | 0.20 | 46 | 1010.3 |
| 20260506025848 | 22 | 152 | 1.6 | 9.7 | 0.00 | 0.20 | 0.20 | 45 | 1010.3 |
| 20260506025345 | 22 | 181 | 6.4 | 17.7 | 0.00 | 0.20 | 0.20 | 45 | 1010.2 |
| 20260506024842 | 22 | 177 | 6.4 | 6.4 | 0.00 | 0.20 | 0.20 | 45 | 1010.3 |
| 20260506024338 | 22 | 122 | 6.4 | 11.3 | 0.00 | 0.20 | 0.20 | 44 | 1010.3 |
| 20260506023834 | 22 | 136 | 4.8 | 16.1 | 0.00 | 0.20 | 0.20 | 44 | 1010.2 |
| 20260506023331 | 22 | 169 | 4.8 | 8.0 | 0.00 | 0.20 | 0.20 | 44 | 1010.2 |
| 20260506022828 | 22 | 286 | 1.6 | 17.7 | 0.00 | 0.20 | 0.20 | 43 | 1010.1 |
| 20260506022326 | 22 | 199 | 8.0 | 12.9 | 0.00 | 0.20 | 0.20 | 43 | 1010.2 |
| 20260506021824 | 22 | 189 | 6.4 | 20.9 | 0.00 | 0.20 | 0.20 | 43 | 1010.1 |
| 20260506021320 | 22 | 66 | 4.8 | 12.9 | 0.00 | 0.20 | 0.20 | 42 | 1010.4 |
| 20260506020817 | 23 | 174 | 11.3 | 16.1 | 0.00 | 0.20 | 0.20 | 42 | 1010.3 |
| 20260506020315 | 23 | 212 | 6.4 | 12.9 | 0.00 | 0.20 | 0.20 | 41 | 1010.1 |
| 20260506015812 | 23 | 152 | 6.4 | 19.3 | 0.00 | 0.20 | 0.20 | 41 | 1010.2 |
| 20260506015310 | 23 | 129 | 3.2 | 12.9 | 0.00 | 0.20 | 0.20 | 41 | 1009.9 |
| 20260506014806 | 23 | 162 | 3.2 | 14.5 | 0.00 | 0.20 | 0.20 | 40 | 1010.2 |
| 20260506014303 | 23 | 167 | 3.2 | 14.5 | 0.00 | 0.20 | 0.20 | 40 | 1010.2 |
| 20260506013800 | 23 | 183 | 12.9 | 20.9 | 0.00 | 0.20 | 0.20 | 40 | 1010.0 |
| 20260506013257 | 23 | 114 | 4.8 | 14.5 | 0.00 | 0.20 | 0.20 | 39 | 1010.1 |
| 20260506012754 | 23 | 226 | 3.2 | 9.7 | 0.00 | 0.20 | 0.20 | 39 | 1010.0 |
| 20260506012250 | 23 | 215 | 9.7 | 9.7 | 0.00 | 0.20 | 0.20 | 39 | 1009.8 |
| 20260506011748 | 23 | 187 | 11.3 | 14.5 | 0.00 | 0.20 | 0.20 | 38 | 1009.8 |
| 20260506011244 | 23 | 220 | 6.4 | 22.5 | 0.00 | 0.20 | 0.20 | 38 | 1009.7 |
| 20260506010742 | 24 | 253 | 6.4 | 20.9 | 0.00 | 0.20 | 0.20 | 38 | 1009.7 |
| 20260506010239 | 24 | 177 | 8.0 | 30.6 | 0.00 | 0.20 | 0.20 | 38 | 1009.5 |
| 20260506005737 | 24 | 173 | 3.2 | 16.1 | 0.00 | 0.20 | 0.20 | 38 | 1009.5 |
| 20260506005233 | 24 | 218 | 19.3 | 27.4 | 0.00 | 0.20 | 0.20 | 37 | 1009.4 |
| 20260506004729 | 24 | 188 | 8.0 | 20.9 | 0.00 | 0.20 | 0.20 | 38 | 1009.4 |
| 20260506004227 | 24 | 188 | 9.7 | 19.3 | 0.00 | 0.20 | 0.20 | 37 | 1009.3 |
| 20260506003723 | 24 | 206 | 14.5 | 19.3 | 0.00 | 0.20 | 0.20 | 37 | 1009.6 |
| 20260506003219 | 24 | 191 | 4.8 | 27.4 | 0.00 | 0.20 | 0.20 | 37 | 1009.4 |
| 20260506002715 | 24 | 228 | 4.8 | 9.7 | 0.00 | 0.20 | 0.20 | 38 | 1009.3 |
| 20260506002212 | 24 | 207 | 1.6 | 19.3 | 0.00 | 0.20 | 0.20 | 38 | 1009.2 |
| 20260506001708 | 24 | 269 | 3.2 | 19.3 | 0.00 | 0.20 | 0.20 | 38 | 1008.9 |
| 20260506001205 | 25 | 186 | 4.8 | 12.9 | 0.00 | 0.20 | 0.20 | 38 | 1008.8 |
| 20260506000702 | 25 | 215 | 12.9 | 17.7 | 0.00 | 0.20 | 0.20 | 37 | 1008.9 |
| 20260506000159 | 25 | 212 | 14.5 | 14.5 | 0.00 | 0.20 | 0.20 | 37 | 1008.9 |
| 20260505235657 | 25 | 177 | 6.4 | 20.9 | 0.00 | 0.20 | 0.20 | 37 | 1008.8 |
| 20260505235154 | 25 | 185 | 4.8 | 17.7 | 0.00 | 0.20 | 0.20 | 36 | 1008.9 |
| 20260505234651 | 25 | 164 | 6.4 | 19.3 | 0.00 | 0.20 | 0.20 | 36 | 1008.8 |
| 20260505234148 | 25 | 188 | 12.9 | 29.0 | 0.00 | 0.20 | 0.20 | 36 | 1008.7 |
| 20260505233645 | 25 | 169 | 9.7 | 29.0 | 0.00 | 0.20 | 0.20 | 36 | 1008.8 |
| 20260505233142 | 25 | 180 | 11.3 | 16.1 | 0.00 | 0.20 | 0.20 | 36 | 1008.8 |
| 20260505232640 | 25 | 193 | 9.7 | 19.3 | 0.00 | 0.20 | 0.20 | 36 | 1008.8 |
| 20260505232137 | 25 | 156 | 3.2 | 16.1 | 0.00 | 0.20 | 0.20 | 35 | 1008.5 |
| 20260505231634 | 26 | 224 | 6.4 | 12.9 | 0.00 | 0.20 | 0.20 | 35 | 1008.6 |
| 20260505231133 | 26 | 213 | 11.3 | 22.5 | 0.00 | 0.20 | 0.20 | 35 | 1008.5 |
| 20260505230630 | 26 | 154 | 8.0 | 25.7 | 0.00 | 0.20 | 0.20 | 34 | 1008.6 |
| 20260505230126 | 26 | 231 | 9.7 | 20.9 | 0.00 | 0.20 | 0.20 | 34 | 1008.4 |
| 20260505225623 | 26 | 174 | 9.7 | 27.4 | 0.00 | 0.20 | 0.20 | 34 | 1008.6 |
| 20260505225119 | 26 | 219 | 22.5 | 30.6 | 0.00 | 0.20 | 0.20 | 34 | 1008.3 |
| 20260505224616 | 26 | 224 | 19.3 | 24.1 | 0.00 | 0.20 | 0.20 | 34 | 1008.5 |
| 20260505224113 | 26 | 197 | 14.5 | 20.9 | 0.00 | 0.20 | 0.20 | 34 | 1008.4 |
| 20260505223610 | 27 | 249 | 11.3 | 24.1 | 0.00 | 0.20 | 0.20 | 33 | 1008.4 |
| 20260505223107 | 27 | 217 | 3.2 | 17.7 | 0.00 | 0.20 | 0.20 | 34 | 1008.4 |
| 20260505222603 | 27 | 197 | 3.2 | 16.1 | 0.00 | 0.20 | 0.20 | 33 | 1008.5 |
| 20260505222059 | 27 | 196 | 9.7 | 32.2 | 0.00 | 0.20 | 0.20 | 32 | 1008.4 |
| 20260505221556 | 27 | 198 | 6.4 | 30.6 | 0.00 | 0.20 | 0.20 | 32 | 1008.2 |
| 20260505221053 | 27 | 215 | 12.9 | 22.5 | 0.00 | 0.20 | 0.20 | 31 | 1008.3 |
| 20260505220550 | 27 | 216 | 12.9 | 27.4 | 0.00 | 0.20 | 0.20 | 31 | 1008.2 |
| 20260505220048 | 27 | 194 | 6.4 | 22.5 | 0.00 | 0.20 | 0.20 | 32 | 1008.0 |
| 20260505215546 | 27 | 202 | 12.9 | 16.1 | 0.00 | 0.20 | 0.20 | 33 | 1008.0 |
| 20260505215043 | 27 | 214 | 3.2 | 22.5 | 0.00 | 0.20 | 0.20 | 33 | 1008.1 |
| 20260505214541 | 27 | 197 | 9.7 | 16.1 | 0.00 | 0.20 | 0.20 | 34 | 1008.2 |
| 20260505214038 | 27 | 196 | 12.9 | 25.7 | 0.00 | 0.20 | 0.20 | 32 | 1008.4 |
| 20260505213536 | 27 | 200 | 8.0 | 29.0 | 0.00 | 0.20 | 0.20 | 33 | 1008.3 |
| 20260505213031 | 27 | 197 | 24.1 | 24.1 | 0.00 | 0.20 | 0.20 | 33 | 1008.2 |
| 20260505212528 | 27 | 180 | 6.4 | 24.1 | 0.00 | 0.20 | 0.20 | 33 | 1008.1 |
| 20260505212026 | 27 | 187 | 8.0 | 17.7 | 0.00 | 0.20 | 0.20 | 32 | 1008.1 |
| 20260505211523 | 27 | 212 | 20.9 | 27.4 | 0.00 | 0.20 | 0.20 | 32 | 1008.0 |
| 20260505211019 | 27 | 176 | 9.7 | 24.1 | 0.00 | 0.20 | 0.20 | 32 | 1008.2 |
| 20260505210516 | 28 | 238 | 11.3 | 22.5 | 0.00 | 0.20 | 0.20 | 31 | 1008.2 |
| 20260505210013 | 28 | 206 | 6.4 | 24.1 | 0.00 | 0.20 | 0.20 | 30 | 1008.2 |
| 20260505205511 | 28 | 210 | 14.5 | 20.9 | 0.00 | 0.20 | 0.20 | 31 | 1008.1 |
| 20260505205008 | 28 | 195 | 12.9 | 19.3 | 0.00 | 0.20 | 0.20 | 31 | 1008.2 |
| 20260505204506 | 28 | 180 | 11.3 | 35.4 | 0.00 | 0.20 | 0.20 | 30 | 1008.0 |
| 20260505204003 | 28 | 223 | 17.7 | 29.0 | 0.00 | 0.20 | 0.20 | 30 | 1008.0 |
| 20260505203459 | 28 | 192 | 12.9 | 29.0 | 0.00 | 0.20 | 0.20 | 31 | 1008.1 |
| 20260505202955 | 28 | 197 | 16.1 | 19.3 | 0.00 | 0.20 | 0.20 | 31 | 1008.0 |
| 20260505202452 | 28 | 201 | 11.3 | 25.7 | 0.00 | 0.20 | 0.20 | 31 | 1008.0 |
| 20260505201948 | 28 | 190 | 12.9 | 20.9 | 0.00 | 0.20 | 0.20 | 31 | 1007.8 |
| 20260505201445 | 27 | 225 | 8.0 | 17.7 | 0.00 | 0.20 | 0.20 | 32 | 1008.1 |
| 20260505200943 | 27 | 211 | 19.3 | 33.8 | 0.00 | 0.20 | 0.20 | 31 | 1008.1 |
| 20260505200441 | 27 | 199 | 12.9 | 17.7 | 0.00 | 0.20 | 0.20 | 32 | 1008.3 |
| 20260505195936 | 28 | 197 | 20.9 | 27.4 | 0.00 | 0.20 | 0.20 | 31 | 1008.2 |
| 20260505195433 | 27 | 201 | 8.0 | 24.1 | 0.00 | 0.20 | 0.20 | 32 | 1008.3 |
| 20260505194931 | 28 | 184 | 9.7 | 24.1 | 0.00 | 0.20 | 0.20 | 32 | 1008.4 |
| 20260505194428 | 28 | 231 | 17.7 | 24.1 | 0.00 | 0.20 | 0.20 | 33 | 1008.1 |
| 20260505193928 | 28 | 188 | 9.7 | 17.7 | 0.00 | 0.20 | 0.20 | 32 | 1008.2 |
| 20260505193426 | 28 | 225 | 11.3 | 32.2 | 0.00 | 0.20 | 0.20 | 32 | 1008.4 |
| 20260505192924 | 29 | 214 | 14.5 | 30.6 | 0.00 | 0.20 | 0.20 | 31 | 1008.4 |
| 20260505192421 | 28 | 174 | 3.2 | 16.1 | 0.00 | 0.20 | 0.20 | 34 | 1008.4 |
| 20260505191919 | 28 | 149 | 11.3 | 14.5 | 0.00 | 0.20 | 0.20 | 35 | 1008.6 |
| 20260505191417 | 28 | 227 | 8.0 | 14.5 | 0.00 | 0.20 | 0.20 | 33 | 1008.2 |
| 20260505190914 | 28 | 205 | 6.4 | 24.1 | 0.00 | 0.20 | 0.20 | 33 | 1008.5 |
| 20260505190409 | 28 | 208 | 20.9 | 32.2 | 0.00 | 0.20 | 0.20 | 30 | 1008.4 |
| 20260505185904 | 28 | 208 | 6.4 | 14.5 | 0.00 | 0.20 | 0.20 | 32 | 1008.7 |
| 20260505185402 | 28 | 204 | 4.8 | 17.7 | 0.00 | 0.20 | 0.20 | 31 | 1008.8 |
| 20260505184858 | 28 | 219 | 12.9 | 24.1 | 0.00 | 0.20 | 0.20 | 31 | 1008.8 |
| 20260505184355 | 28 | 212 | 6.4 | 24.1 | 0.00 | 0.20 | 0.20 | 30 | 1008.9 |
| 20260505183852 | 28 | 198 | 16.1 | 24.1 | 0.00 | 0.20 | 0.20 | 29 | 1008.6 |
| 20260505183349 | 28 | 204 | 8.0 | 20.9 | 0.00 | 0.20 | 0.20 | 31 | 1009.0 |